Time;durP1;ratioP1;P1;durP2;ratioP2;P2;SDS_P1;SDS_P2;PMS_P1;PMS_P2;Temp;Humidity;BMP_temperature;BMP_pressure;BME280_temperature;BME280_humidity;BME280_pressure;Samples;Min_cycle;Max_cycle;Signal;HPM_P1;HPM_P2
2022/08/31 00:05:09;;;;;;;26.38;20.73;;;22.70;99.90;;;;;;5090930;28;20263;-75
2022/08/31 00:07:36;;;;;;;24.67;20.85;;;22.80;99.90;;;;;;5090919;28;20240;-75
2022/08/31 00:10:12;;;;;;;23.88;21.20;;;22.80;99.90;;;;;;5083607;28;20190;-75
2022/08/31 00:12:41;;;;;;;23.83;20.80;;;22.80;99.90;;;;;;5092255;28;20189;-75
2022/08/31 00:15:10;;;;;;;24.25;21.70;;;22.90;99.90;;;;;;5087734;28;20214;-75
2022/08/31 00:17:37;;;;;;;30.60;22.00;;;22.90;99.90;;;;;;5117851;27;20193;-75
2022/08/31 00:20:07;;;;;;;23.65;21.17;;;23.00;99.90;;;;;;5075911;28;20182;-75
2022/08/31 00:22:33;;;;;;;24.70;22.00;;;23.00;99.90;;;;;;5080145;28;20186;-75
2022/08/31 00:25:00;;;;;;;28.67;22.33;;;23.10;99.90;;;;;;5086986;28;20316;-75
2022/08/31 00:27:26;;;;;;;32.90;23.60;;;23.10;99.90;;;;;;5089955;28;20191;-75
2022/08/31 00:29:53;;;;;;;25.80;23.15;;;23.10;99.90;;;;;;5084740;28;20826;-75
2022/08/31 00:32:19;;;;;;;28.00;22.33;;;23.20;99.90;;;;;;5091813;28;20250;-75
2022/08/31 00:34:45;;;;;;;26.38;23.60;;;23.20;99.90;;;;;;5100827;28;20230;-75
2022/08/31 00:37:11;;;;;;;26.40;23.50;;;23.20;99.90;;;;;;5086931;28;20187;-75
2022/08/31 00:39:38;;;;;;;25.40;22.77;;;23.30;99.90;;;;;;5072955;28;20178;-74
2022/08/31 00:42:06;;;;;;;28.25;23.73;;;23.30;99.90;;;;;;5089049;28;20178;-75
2022/08/31 00:44:33;;;;;;;27.88;23.48;;;23.30;99.90;;;;;;5083426;28;20186;-75
2022/08/31 00:46:59;;;;;;;28.25;23.48;;;23.30;99.90;;;;;;5089947;28;20186;-75
2022/08/31 00:49:33;;;;;;;27.45;23.92;;;23.30;99.90;;;;;;5085951;28;20191;-75
2022/08/31 00:52:26;;;;;;;24.73;22.30;;;23.20;99.90;;;;;;5098192;28;20228;-75
2022/08/31 00:55:04;;;;;;;25.17;21.60;;;23.20;99.90;;;;;;5080191;28;20242;-75
2022/08/31 00:57:38;;;;;;;29.45;22.13;;;23.20;99.90;;;;;;5082207;28;20178;-75
2022/08/31 01:00:13;;;;;;;26.23;21.55;;;23.20;99.90;;;;;;5099167;28;20186;-75
2022/08/31 01:02:40;;;;;;;27.27;21.73;;;23.10;99.90;;;;;;5083641;28;20593;-75
2022/08/31 01:05:08;;;;;;;24.83;21.55;;;22.90;99.90;;;;;;5085927;28;20205;-75
2022/08/31 01:07:37;;;;;;;24.20;21.05;;;22.90;99.90;;;;;;5105081;28;20189;-74
2022/08/31 01:10:06;;;;;;;23.20;20.17;;;22.90;99.90;;;;;;5105800;28;20174;-74
2022/08/31 01:12:33;;;;;;;27.88;20.60;;;23.00;99.90;;;;;;5084672;28;20656;-74
2022/08/31 01:15:04;;;;;;;27.27;21.63;;;22.90;99.90;;;;;;5087975;28;20209;-74
2022/08/31 01:17:33;;;;;;;25.75;21.30;;;22.90;99.90;;;;;;5098644;28;20190;-74
2022/08/31 01:20:30;;;;;;;26.52;22.58;;;23.00;99.90;;;;;;5089263;28;20198;-74
2022/08/31 01:23:16;;;;;;;25.98;23.27;;;22.90;99.90;;;;;;5090900;28;20208;-74
2022/08/31 01:25:46;;;;;;;35.10;24.80;;;22.90;99.90;;;;;;5083062;28;20194;-75
2022/08/31 01:28:12;;;;;;;31.42;24.13;;;22.80;99.90;;;;;;5086410;28;20261;-74
2022/08/31 01:30:41;;;;;;;28.92;22.65;;;22.70;99.90;;;;;;5088886;28;20190;-74
2022/08/31 01:33:08;;;;;;;25.90;22.30;;;22.80;99.90;;;;;;5089529;28;20174;-74
2022/08/31 01:35:35;;;;;;;25.98;21.92;;;22.80;99.90;;;;;;5119303;27;20221;-74
2022/08/31 01:38:02;;;;;;;27.58;21.63;;;22.80;99.90;;;;;;5124835;27;20268;-74
2022/08/31 01:40:43;;;;;;;25.20;20.40;;;22.70;99.90;;;;;;5081808;28;20187;-74
2022/08/31 01:43:09;;;;;;;26.48;20.13;;;22.60;99.90;;;;;;5086037;28;20236;-74
2022/08/31 01:45:35;;;;;;;27.73;19.33;;;22.60;99.90;;;;;;5089969;28;20568;-74
2022/08/31 01:48:02;;;;;;;22.25;19.25;;;22.60;99.90;;;;;;5071492;28;20186;-74
2022/08/31 01:50:28;;;;;;;20.20;18.00;;;22.60;99.90;;;;;;5076414;28;20186;-74
2022/08/31 01:52:55;;;;;;;25.60;19.60;;;22.50;99.90;;;;;;5089172;28;20190;-74
2022/08/31 01:55:21;;;;;;;26.63;19.52;;;22.50;99.90;;;;;;5088301;28;20213;-74
2022/08/31 01:57:48;;;;;;;26.88;18.52;;;22.50;99.90;;;;;;5069628;28;20185;-74
2022/08/31 02:00:14;;;;;;;22.67;19.63;;;22.40;99.90;;;;;;5088097;28;20174;-74
2022/08/31 02:02:41;;;;;;;24.27;17.98;;;22.40;99.90;;;;;;5104930;28;20174;-74
2022/08/31 02:05:09;;;;;;;24.48;19.10;;;22.50;99.90;;;;;;5101314;28;20198;-74
2022/08/31 02:07:35;;;;;;;23.35;19.35;;;22.50;99.90;;;;;;5104886;28;20190;-74
2022/08/31 02:10:01;;;;;;;20.77;18.45;;;22.50;99.90;;;;;;5087448;28;20218;-74
2022/08/31 02:12:27;;;;;;;22.92;18.55;;;22.50;99.90;;;;;;5087100;28;20193;-74
2022/08/31 02:14:53;;;;;;;23.33;18.10;;;22.40;99.90;;;;;;5088414;28;20252;-74
2022/08/31 02:17:21;;;;;;;20.83;18.73;;;22.40;99.90;;;;;;5085156;28;20244;-74
2022/08/31 02:19:47;;;;;;;20.48;18.30;;;22.40;99.90;;;;;;5089570;28;20186;-74
2022/08/31 02:22:14;;;;;;;22.90;17.83;;;22.30;99.90;;;;;;5070390;28;20192;-74
2022/08/31 02:24:40;;;;;;;21.17;17.40;;;22.30;99.90;;;;;;5085077;28;20521;-74
2022/08/31 02:27:07;;;;;;;23.70;17.10;;;22.30;99.90;;;;;;5088401;28;20804;-74
2022/08/31 02:29:33;;;;;;;20.02;17.13;;;22.30;99.90;;;;;;5104710;28;20271;-74
2022/08/31 02:31:59;;;;;;;21.70;17.40;;;22.30;99.90;;;;;;5081958;28;20183;-74
2022/08/31 02:34:26;;;;;;;20.75;17.80;;;22.30;99.90;;;;;;5068618;28;20257;-74
2022/08/31 02:36:57;;;;;;;19.40;17.40;;;22.30;99.90;;;;;;5090764;28;20182;-74
2022/08/31 02:39:24;;;;;;;18.38;16.52;;;22.30;99.90;;;;;;5084809;28;20265;-74
2022/08/31 02:41:53;;;;;;;20.48;17.83;;;22.30;99.90;;;;;;5088422;28;20193;-74
2022/08/31 02:44:19;;;;;;;20.23;16.90;;;22.20;99.90;;;;;;5051184;28;20198;-74
2022/08/31 02:46:47;;;;;;;27.92;17.48;;;22.20;99.90;;;;;;5076897;28;20254;-74
2022/08/31 02:49:13;;;;;;;22.55;16.30;;;22.20;99.90;;;;;;5120232;28;20193;-74
2022/08/31 02:51:41;;;;;;;24.20;17.58;;;22.20;99.90;;;;;;5088134;28;20247;-74
2022/08/31 02:54:09;;;;;;;18.13;16.20;;;22.20;99.90;;;;;;5104684;28;20290;-74
2022/08/31 02:56:35;;;;;;;19.13;16.95;;;22.20;99.90;;;;;;5065669;28;20202;-74
2022/08/31 02:59:02;;;;;;;18.88;16.58;;;22.30;99.90;;;;;;5085672;28;20179;-74
2022/08/31 03:01:28;;;;;;;19.92;16.42;;;22.20;99.90;;;;;;5086191;28;20238;-74
2022/08/31 03:03:55;;;;;;;22.88;16.60;;;22.10;99.90;;;;;;5085049;28;20197;-74
2022/08/31 03:06:22;;;;;;;19.90;14.85;;;22.10;99.90;;;;;;5089462;28;20265;-74
2022/08/31 03:08:49;;;;;;;19.42;13.63;;;22.10;99.90;;;;;;5089440;28;20235;-74
2022/08/31 03:11:17;;;;;;;17.83;13.30;;;22.00;99.90;;;;;;5085508;28;20225;-74
2022/08/31 03:13:44;;;;;;;14.95;12.32;;;21.80;99.90;;;;;;5106385;28;20174;-74
2022/08/31 03:16:14;;;;;;;19.27;12.90;;;21.70;99.90;;;;;;5106653;28;20183;-74
2022/08/31 03:18:40;;;;;;;16.88;12.90;;;21.70;99.90;;;;;;5091214;28;20186;-74
2022/08/31 03:21:07;;;;;;;17.70;14.05;;;21.70;99.90;;;;;;5089178;28;20183;-74
2022/08/31 03:23:33;;;;;;;15.60;13.90;;;21.70;99.90;;;;;;5103658;28;20270;-74
2022/08/31 03:25:59;;;;;;;16.95;14.07;;;21.70;99.90;;;;;;5085341;28;20194;-74
2022/08/31 03:28:26;;;;;;;17.67;13.93;;;21.70;99.90;;;;;;5089737;28;20297;-74
2022/08/31 03:30:52;;;;;;;19.98;14.18;;;21.70;99.90;;;;;;5087271;28;20189;-74
2022/08/31 03:33:19;;;;;;;16.35;13.48;;;21.70;99.90;;;;;;5125128;27;20285;-74
2022/08/31 03:35:45;;;;;;;19.98;13.57;;;21.60;99.90;;;;;;5086766;28;20772;-74
2022/08/31 03:38:14;;;;;;;14.48;12.98;;;21.60;99.90;;;;;;5088822;28;20186;-74
2022/08/31 03:40:43;;;;;;;22.25;14.90;;;21.60;99.90;;;;;;5084988;28;20194;-74
2022/08/31 03:43:10;;;;;;;18.42;13.90;;;21.60;99.90;;;;;;5090920;28;20189;-74
2022/08/31 03:45:39;;;;;;;20.48;13.90;;;21.50;99.90;;;;;;5085404;28;20521;-74
2022/08/31 03:48:07;;;;;;;15.38;13.43;;;21.50;99.90;;;;;;5089823;28;20194;-74
2022/08/31 03:50:34;;;;;;;16.90;14.93;;;21.50;99.90;;;;;;5089766;28;20190;-74
2022/08/31 03:53:03;;;;;;;24.52;15.15;;;21.50;99.90;;;;;;5092281;28;20186;-74
2022/08/31 03:55:36;;;;;;;18.58;15.30;;;21.50;99.90;;;;;;5105436;28;20248;-74
2022/08/31 03:58:02;;;;;;;18.50;14.43;;;21.50;99.90;;;;;;5090416;28;20276;-74
2022/08/31 04:00:30;;;;;;;19.45;15.45;;;21.60;99.90;;;;;;5103918;28;20216;-74
2022/08/31 04:02:58;;;;;;;18.90;14.75;;;21.60;99.90;;;;;;5112949;27;20205;-74
2022/08/31 04:05:27;;;;;;;20.20;15.77;;;21.60;99.90;;;;;;5107881;28;20190;-74
2022/08/31 04:07:54;;;;;;;17.93;14.73;;;21.50;99.90;;;;;;5082187;28;20265;-74
2022/08/31 04:10:21;;;;;;;17.80;15.10;;;21.60;99.90;;;;;;5073123;28;20277;-74
2022/08/31 04:12:49;;;;;;;16.63;14.90;;;21.60;99.90;;;;;;5092113;28;20178;-74
2022/08/31 04:15:16;;;;;;;24.08;15.90;;;21.60;99.90;;;;;;5091712;28;20220;-74
2022/08/31 04:17:45;;;;;;;18.33;15.60;;;21.70;99.90;;;;;;5091482;28;20198;-74
2022/08/31 04:20:11;;;;;;;18.55;14.98;;;21.70;99.90;;;;;;5106493;28;20694;-74
2022/08/31 04:22:38;;;;;;;19.27;17.25;;;21.80;99.90;;;;;;5100227;28;20178;-74
2022/08/31 04:25:06;;;;;;;18.95;17.00;;;21.80;99.90;;;;;;5090793;28;20213;-74
2022/08/31 04:27:32;;;;;;;19.73;17.65;;;21.90;99.90;;;;;;5070853;28;20750;-74
2022/08/31 04:29:58;;;;;;;21.02;18.35;;;21.90;99.90;;;;;;5087327;28;20678;-74
2022/08/31 04:32:25;;;;;;;22.92;19.02;;;21.90;99.90;;;;;;5088931;28;20205;-74
2022/08/31 04:34:51;;;;;;;25.10;21.42;;;22.00;99.90;;;;;;5073279;28;20670;-74
2022/08/31 04:37:18;;;;;;;27.98;23.38;;;22.00;99.90;;;;;;5121377;27;20177;-74
2022/08/31 04:39:45;;;;;;;28.17;25.17;;;22.00;99.90;;;;;;5092113;28;20178;-74
2022/08/31 04:42:11;;;;;;;34.97;27.27;;;22.10;99.90;;;;;;5113177;27;20187;-74
2022/08/31 04:44:38;;;;;;;31.67;27.85;;;22.10;99.90;;;;;;5088325;28;20276;-74
2022/08/31 04:47:07;;;;;;;33.50;29.05;;;22.20;99.90;;;;;;5090075;28;20189;-74
2022/08/31 04:49:33;;;;;;;39.67;30.40;;;22.20;99.90;;;;;;5072119;28;20205;-74
2022/08/31 04:51:59;;;;;;;36.28;30.20;;;22.20;99.90;;;;;;5089938;28;20235;-74
2022/08/31 04:54:26;;;;;;;35.50;30.83;;;22.30;99.90;;;;;;5081151;28;20244;-74
2022/08/31 04:56:53;;;;;;;37.25;33.17;;;22.30;99.90;;;;;;5123290;27;20178;-74
2022/08/31 04:59:24;;;;;;;37.25;33.17;;;22.40;99.90;;;;;;5106096;28;20521;-74
2022/08/31 05:01:51;;;;;;;37.53;33.17;;;22.50;99.90;;;;;;5064836;28;20293;-74
2022/08/31 05:04:17;;;;;;;40.08;33.75;;;22.50;99.90;;;;;;5123086;27;20181;-74
2022/08/31 05:06:45;;;;;;;36.97;33.25;;;22.50;99.90;;;;;;5121818;27;20793;-74
2022/08/31 05:09:17;;;;;;;38.83;35.08;;;22.60;99.90;;;;;;5084275;28;20191;-74
2022/08/31 05:11:44;;;;;;;40.53;35.08;;;22.70;99.90;;;;;;5090867;28;20179;-74
2022/08/31 05:14:11;;;;;;;38.30;34.50;;;22.80;99.90;;;;;;5086214;28;20714;-74
2022/08/31 05:16:40;;;;;;;42.88;36.30;;;22.80;99.90;;;;;;5089592;28;20271;-74
2022/08/31 05:19:07;;;;;;;40.90;36.53;;;22.90;99.90;;;;;;5088642;28;20182;-74
2022/08/31 05:21:37;;;;;;;40.38;35.80;;;22.90;99.90;;;;;;5098775;28;20244;-74
2022/08/31 05:24:19;;;;;;;42.47;34.78;;;22.90;99.90;;;;;;5086748;28;20174;-74
2022/08/31 05:26:51;;;;;;;37.50;33.72;;;23.00;99.90;;;;;;5086875;28;20197;-74
2022/08/31 05:29:22;;;;;;;37.92;34.10;;;23.00;99.90;;;;;;5105050;28;20269;-74
2022/08/31 05:31:49;;;;;;;38.78;34.92;;;23.00;99.90;;;;;;5090660;28;20226;-74
2022/08/31 05:34:16;;;;;;;46.75;39.40;;;23.10;99.90;;;;;;5090517;28;20198;-74
2022/08/31 05:36:48;;;;;;;43.22;35.25;;;23.20;99.90;;;;;;5121445;27;20666;-74
2022/08/31 05:39:15;;;;;;;40.67;34.40;;;23.20;99.90;;;;;;5089206;28;20220;-74
2022/08/31 05:41:45;;;;;;;36.22;32.53;;;23.30;99.90;;;;;;5088664;28;20568;-74
2022/08/31 05:44:13;;;;;;;43.38;32.17;;;23.30;99.90;;;;;;5123069;27;20178;-74
2022/08/31 05:46:41;;;;;;;34.35;29.38;;;23.30;99.90;;;;;;5087474;28;20205;-74
2022/08/31 05:49:08;;;;;;;42.75;30.88;;;23.30;99.90;;;;;;5084693;28;20525;-74
2022/08/31 05:51:35;;;;;;;31.90;28.58;;;23.40;99.90;;;;;;5084093;28;20190;-74
2022/08/31 05:54:03;;;;;;;34.40;28.05;;;23.40;99.90;;;;;;5088516;28;20694;-74
2022/08/31 05:56:29;;;;;;;30.75;26.73;;;23.50;99.90;;;;;;5104580;28;20187;-74
2022/08/31 05:58:57;;;;;;;36.17;27.70;;;23.50;99.90;;;;;;5086367;28;20190;-74
2022/08/31 06:01:34;;;;;;;31.60;28.33;;;23.50;99.90;;;;;;5085825;28;20182;-74
2022/08/31 06:04:01;;;;;;;33.03;27.98;;;23.60;99.90;;;;;;5089513;28;20182;-74
2022/08/31 06:06:28;;;;;;;35.45;27.67;;;23.60;99.90;;;;;;5086507;28;20186;-74
2022/08/31 06:08:56;;;;;;;33.03;28.35;;;23.70;99.90;;;;;;5082140;28;20656;-74
2022/08/31 06:11:30;;;;;;;39.25;27.85;;;23.80;99.90;;;;;;5104911;28;20184;-74
2022/08/31 06:13:59;;;;;;;34.88;25.23;;;23.80;99.90;;;;;;5102408;28;20182;-74
2022/08/31 06:16:28;;;;;;;33.20;26.02;;;23.80;99.90;;;;;;5073174;28;20213;-74
2022/08/31 06:18:56;;;;;;;28.65;25.55;;;23.90;99.90;;;;;;5117102;27;20671;-74
2022/08/31 06:21:29;;;;;;;33.92;27.75;;;24.00;99.90;;;;;;5087842;28;20193;-74
2022/08/31 06:23:58;;;;;;;34.58;26.92;;;24.00;99.90;;;;;;5105165;28;20304;-74
2022/08/31 06:26:28;;;;;;;36.75;26.85;;;24.10;99.90;;;;;;5086828;28;20186;-74
2022/08/31 06:29:00;;;;;;;32.90;25.10;;;24.20;99.90;;;;;;5087988;28;20182;-75
2022/08/31 06:31:36;;;;;;;33.58;24.38;;;24.30;99.90;;;;;;5085840;28;20191;-74
2022/08/31 06:34:07;;;;;;;30.83;23.88;;;24.40;99.90;;;;;;5082703;28;20190;-74
2022/08/31 06:36:34;;;;;;;32.83;22.60;;;24.50;99.90;;;;;;5091871;28;20189;-74
2022/08/31 06:39:04;;;;;;;30.48;23.58;;;24.60;99.90;;;;;;5085437;28;20258;-74
2022/08/31 06:41:35;;;;;;;37.97;23.38;;;24.60;99.90;;;;;;5081305;28;20187;-74
2022/08/31 06:44:09;;;;;;;30.08;22.30;;;24.70;99.90;;;;;;5102906;28;20178;-74
2022/08/31 06:46:38;;;;;;;30.15;23.17;;;24.70;99.90;;;;;;5091216;28;20186;-74
2022/08/31 06:49:06;;;;;;;33.65;23.20;;;24.80;99.90;;;;;;5085580;28;20190;-74
2022/08/31 06:51:35;;;;;;;24.38;21.20;;;24.80;99.90;;;;;;5087597;28;20186;-74
2022/08/31 06:54:06;;;;;;;32.50;21.17;;;24.90;99.90;;;;;;5120119;27;20185;-74
2022/08/31 06:56:34;;;;;;;28.75;20.00;;;25.00;99.90;;;;;;5078980;28;20231;-74
2022/08/31 06:59:02;;;;;;;25.63;20.15;;;25.10;99.90;;;;;;5082632;28;20201;-74
2022/08/31 07:01:32;;;;;;;29.25;20.23;;;25.10;99.90;;;;;;5089977;28;20218;-74
2022/08/31 07:04:03;;;;;;;31.65;20.33;;;25.20;99.90;;;;;;5080047;28;20181;-75
2022/08/31 07:06:42;;;;;;;26.17;19.67;;;25.30;99.90;;;;;;5089026;28;20209;-74
2022/08/31 07:09:16;;;;;;;22.35;19.23;;;25.40;99.90;;;;;;5088538;28;20540;-74
2022/08/31 07:11:46;;;;;;;23.77;17.92;;;25.40;99.90;;;;;;5084698;28;20217;-74
2022/08/31 07:14:20;;;;;;;28.88;18.40;;;25.50;99.90;;;;;;5089042;28;20717;-74
2022/08/31 07:16:47;;;;;;;26.77;18.33;;;25.60;99.90;;;;;;5092028;28;20190;-74
2022/08/31 07:19:15;;;;;;;25.92;18.05;;;25.60;99.90;;;;;;5086363;28;20580;-74
2022/08/31 07:21:57;;;;;;;21.15;17.13;;;25.70;99.90;;;;;;5074958;28;20639;-74
2022/08/31 07:24:29;;;;;;;26.08;17.13;;;25.80;99.90;;;;;;5084870;28;20238;-74
2022/08/31 07:27:03;;;;;;;21.73;16.45;;;25.90;99.90;;;;;;5073261;28;20270;-74
2022/08/31 07:29:39;;;;;;;25.90;16.33;;;26.00;99.90;;;;;;5120409;27;20194;-74
2022/08/31 07:32:11;;;;;;;26.60;15.48;;;26.10;99.90;;;;;;5092967;28;20594;-74
2022/08/31 07:34:38;;;;;;;22.50;14.85;;;26.10;99.90;;;;;;5088790;28;20210;-74
2022/08/31 07:42:45;;;;;;;22.42;13.55;;;26.40;99.90;;;;;;5111945;27;20187;-73
2022/08/31 07:45:21;;;;;;;28.05;12.80;;;26.50;99.90;;;;;;5082638;28;20604;-73
2022/08/31 07:47:51;;;;;;;24.15;13.13;;;26.60;99.90;;;;;;5079697;28;20637;-73
2022/08/31 07:50:21;;;;;;;24.65;13.07;;;26.60;99.90;;;;;;5083692;28;20651;-73
2022/08/31 07:52:53;;;;;;;20.77;12.48;;;26.70;99.90;;;;;;5093040;28;20247;-73
2022/08/31 07:55:22;;;;;;;19.05;12.30;;;26.70;99.90;;;;;;5092071;28;20213;-72
2022/08/31 07:57:52;;;;;;;23.90;12.15;;;26.80;99.90;;;;;;5125273;27;20220;-74
2022/08/31 08:00:31;;;;;;;20.85;12.13;;;26.90;99.90;;;;;;5096144;28;20189;-74
2022/08/31 08:03:06;;;;;;;19.95;11.93;;;27.00;99.90;;;;;;5083521;28;20217;-74
2022/08/31 08:05:37;;;;;;;15.82;9.98;;;27.00;99.90;;;;;;5084550;28;20182;-74
2022/08/31 08:08:06;;;;;;;18.35;9.90;;;27.20;99.90;;;;;;5075312;28;20186;-74
2022/08/31 08:10:38;;;;;;;19.23;9.73;;;27.20;99.90;;;;;;5078917;28;20182;-74
2022/08/31 08:13:04;;;;;;;18.02;10.48;;;27.30;99.90;;;;;;5079458;28;20198;-74
2022/08/31 08:15:33;;;;;;;16.63;10.55;;;27.30;99.90;;;;;;5115638;27;20343;-74
2022/08/31 08:18:00;;;;;;;20.60;10.80;;;27.30;99.90;;;;;;5121893;27;20189;-73
2022/08/31 08:20:27;;;;;;;24.45;9.98;;;27.40;99.90;;;;;;5089583;28;20618;-74
2022/08/31 08:22:53;;;;;;;15.30;10.15;;;27.50;99.90;;;;;;5086440;28;20187;-74
2022/08/31 08:25:21;;;;;;;25.02;11.15;;;27.60;99.90;;;;;;5080492;28;20193;-74
2022/08/31 08:27:53;;;;;;;20.23;10.88;;;27.60;99.90;;;;;;5085380;28;20218;-75
2022/08/31 08:30:19;;;;;;;17.13;10.70;;;27.60;99.90;;;;;;5100956;28;20196;-75
2022/08/31 08:32:46;;;;;;;20.90;10.82;;;27.70;99.90;;;;;;5089822;28;20192;-73
2022/08/31 08:35:13;;;;;;;18.75;11.02;;;27.80;99.90;;;;;;5087609;28;20207;-73
2022/08/31 08:37:47;;;;;;;19.35;10.25;;;27.80;99.90;;;;;;5122727;27;20190;-73
2022/08/31 08:40:41;;;;;;;22.70;10.20;;;27.80;99.90;;;;;;5086463;28;20189;-73
2022/08/31 08:43:15;;;;;;;18.50;11.35;;;27.90;99.90;;;;;;5075483;28;20175;-73
2022/08/31 08:45:44;;;;;;;18.17;11.13;;;28.00;99.90;;;;;;5098087;27;20200;-73
2022/08/31 08:48:16;;;;;;;18.65;11.00;;;28.10;99.90;;;;;;5114257;27;20209;-73
2022/08/31 08:50:43;;;;;;;18.60;10.30;;;28.20;99.90;;;;;;5085089;28;20199;-73
2022/08/31 08:53:14;;;;;;;22.20;10.48;;;28.20;99.90;;;;;;5082879;28;20194;-73
2022/08/31 08:55:42;;;;;;;14.77;9.95;;;28.20;99.90;;;;;;5079866;28;20367;-73
2022/08/31 08:58:12;;;;;;;18.95;10.63;;;28.30;99.90;;;;;;5087835;28;20174;-73
2022/08/31 09:00:45;;;;;;;18.00;9.25;;;28.30;99.90;;;;;;5084952;28;20189;-73
2022/08/31 09:03:46;;;;;;;17.58;9.68;;;28.30;99.90;;;;;;5079509;28;20190;-74
2022/08/31 09:06:19;;;;;;;19.02;10.35;;;28.40;99.90;;;;;;5080689;28;20192;-74
2022/08/31 09:09:16;;;;;;;25.00;9.52;;;28.40;99.90;;;;;;5081542;28;20278;-74
2022/08/31 09:12:19;;;;;;;21.40;10.23;;;28.60;99.90;;;;;;5083092;28;20217;-73
2022/08/31 09:15:26;;;;;;;17.15;9.57;;;28.60;99.90;;;;;;5088955;28;20241;-73
2022/08/31 09:18:16;;;;;;;13.70;9.43;;;28.80;99.90;;;;;;5089570;28;20190;-73
2022/08/31 09:20:56;;;;;;;22.65;9.05;;;28.80;99.90;;;;;;5088896;28;20205;-74
2022/08/31 09:23:26;;;;;;;18.60;9.05;;;28.90;99.90;;;;;;5106263;28;20234;-73
2022/08/31 09:25:57;;;;;;;19.48;8.73;;;29.00;99.90;;;;;;5122893;27;20551;-74
2022/08/31 09:28:53;;;;;;;15.90;9.00;;;29.00;99.90;;;;;;5088999;28;20559;-75
2022/08/31 09:31:40;;;;;;;15.85;7.80;;;29.20;99.90;;;;;;5090664;28;20570;-73
2022/08/31 09:34:32;;;;;;;19.45;8.98;;;29.30;99.90;;;;;;5089411;28;20245;-74
2022/08/31 09:37:24;;;;;;;18.67;8.50;;;29.30;99.90;;;;;;5069415;28;20223;-73
2022/08/31 09:39:53;;;;;;;19.95;8.10;;;29.30;99.90;;;;;;5106209;28;20219;-75
2022/08/31 09:42:31;;;;;;;20.95;8.00;;;29.40;99.90;;;;;;5089402;28;20258;-73
2022/08/31 09:45:14;;;;;;;15.65;7.20;;;29.50;99.90;;;;;;5089295;28;20192;-73
2022/08/31 09:47:57;;;;;;;21.73;7.72;;;29.70;99.90;;;;;;5090065;28;20246;-73
2022/08/31 09:50:46;;;;;;;18.33;7.55;;;29.80;99.90;;;;;;5088805;28;20189;-73
2022/08/31 09:56:19;;;;;;;24.27;8.18;;;30.00;99.90;;;;;;5089844;28;20628;-77
2022/08/31 09:58:47;;;;;;;16.40;7.20;;;30.20;99.90;;;;;;5105306;28;20178;-75
2022/08/31 10:01:43;;;;;;;14.52;6.90;;;30.20;99.90;;;;;;5106661;28;20174;-78
2022/08/31 10:04:25;;;;;;;14.63;7.10;;;30.40;99.90;;;;;;5080110;28;20194;-76
2022/08/31 10:07:23;;;;;;;21.17;7.05;;;30.40;99.90;;;;;;5089177;28;20174;-75
2022/08/31 10:10:12;;;;;;;23.17;7.15;;;30.30;99.90;;;;;;5099576;28;20179;-75
2022/08/31 10:13:09;;;;;;;16.25;6.55;;;30.40;99.90;;;;;;5116996;27;20615;-75
2022/08/31 10:15:47;;;;;;;19.25;6.95;;;30.50;99.90;;;;;;5088931;28;20209;-75
2022/08/31 10:18:38;;;;;;;14.50;6.30;;;30.50;99.90;;;;;;5071472;28;20214;-76
2022/08/31 10:21:27;;;;;;;14.70;5.80;;;30.60;99.90;;;;;;5105483;28;20543;-75
2022/08/31 10:24:36;;;;;;;16.50;6.32;;;30.70;99.90;;;;;;5088493;28;20178;-75
2022/08/31 10:27:19;;;;;;;17.63;6.43;;;30.70;99.90;;;;;;5088667;28;20180;-75
2022/08/31 10:30:06;;;;;;;18.30;6.57;;;30.50;99.90;;;;;;5105304;28;20265;-75
2022/08/31 10:32:50;;;;;;;17.25;6.68;;;30.60;99.90;;;;;;5105787;28;20178;-74
2022/08/31 10:35:32;;;;;;;20.98;6.63;;;30.60;99.90;;;;;;5090556;28;20673;-77
2022/08/31 10:38:35;;;;;;;16.23;6.00;;;30.60;99.90;;;;;;5105202;28;20186;-75
2022/08/31 10:41:31;;;;;;;18.92;6.85;;;30.40;99.90;;;;;;5089803;28;20178;-76
2022/08/31 10:44:22;;;;;;;18.80;5.75;;;30.50;99.90;;;;;;5105384;28;20199;-75
2022/08/31 10:46:53;;;;;;;15.23;6.15;;;30.50;99.90;;;;;;5105565;28;20209;-75
2022/08/31 10:49:22;;;;;;;22.73;6.43;;;30.60;99.90;;;;;;5104943;28;20174;-76
2022/08/31 10:52:31;;;;;;;24.27;6.60;;;30.40;99.90;;;;;;5105307;28;20185;-75
2022/08/31 10:55:27;;;;;;;22.42;6.55;;;30.30;99.90;;;;;;5089533;28;21027;-75
2022/08/31 10:58:39;;;;;;;16.20;6.05;;;30.40;99.90;;;;;;5088990;28;20223;-75
2022/08/31 11:01:50;;;;;;;14.88;6.22;;;30.50;99.90;;;;;;5042632;28;20186;-75
2022/08/31 11:04:41;;;;;;;19.38;6.00;;;30.40;99.90;;;;;;5105416;28;20182;-75
2022/08/31 11:07:42;;;;;;;12.70;5.55;;;30.60;99.90;;;;;;5071857;28;20181;-75
2022/08/31 11:10:43;;;;;;;18.95;5.80;;;30.50;99.90;;;;;;5105119;28;20182;-75
2022/08/31 11:13:46;;;;;;;17.10;5.60;;;30.40;99.90;;;;;;5087926;28;20216;-75
2022/08/31 11:16:43;;;;;;;21.60;6.43;;;30.40;99.90;;;;;;5047680;28;20217;-75
2022/08/31 11:19:27;;;;;;;18.27;5.88;;;30.30;99.90;;;;;;5070545;28;20563;-75
2022/08/31 11:22:15;;;;;;;19.05;6.20;;;30.40;99.90;;;;;;5071194;28;20186;-75
2022/08/31 11:25:13;;;;;;;16.05;5.85;;;30.30;99.90;;;;;;5087757;28;20186;-75
2022/08/31 11:28:44;;;;;;;18.00;5.60;;;30.40;99.90;;;;;;5102399;28;20662;-75
2022/08/31 11:31:23;;;;;;;15.00;5.70;;;30.40;99.90;;;;;;5073153;28;20591;-75
2022/08/31 11:34:12;;;;;;;19.48;6.65;;;30.40;99.90;;;;;;5087961;28;20255;-77
2022/08/31 11:36:51;;;;;;;20.33;6.03;;;30.40;99.90;;;;;;5091817;28;20213;-74
2022/08/31 11:39:34;;;;;;;24.77;5.78;;;30.30;99.90;;;;;;5090717;28;20239;-75
2022/08/31 11:42:41;;;;;;;15.98;5.55;;;30.30;99.90;;;;;;5074646;28;20184;-77
2022/08/31 11:45:36;;;;;;;19.17;5.65;;;30.40;99.90;;;;;;5108783;28;20181;-75
2022/08/31 11:48:12;;;;;;;16.42;6.03;;;30.40;99.90;;;;;;5092328;28;20235;-76
2022/08/31 11:51:07;;;;;;;13.55;5.10;;;30.30;99.90;;;;;;5108188;28;20221;-76
2022/08/31 11:53:43;;;;;;;15.38;6.38;;;30.30;99.90;;;;;;5074445;28;20273;-76
2022/08/31 11:56:13;;;;;;;19.67;5.35;;;30.40;99.90;;;;;;5090657;28;20220;-75
2022/08/31 11:58:46;;;;;;;14.45;5.80;;;30.30;99.90;;;;;;5090475;28;20718;-75
2022/08/31 12:01:17;;;;;;;15.60;5.50;;;30.40;99.90;;;;;;5074419;28;20178;-75
2022/08/31 12:03:49;;;;;;;18.77;5.82;;;30.40;99.90;;;;;;5108674;28;20205;-75
2022/08/31 12:06:25;;;;;;;16.90;5.57;;;30.40;99.90;;;;;;5075607;28;20262;-77
2022/08/31 12:09:13;;;;;;;19.05;6.00;;;30.20;99.90;;;;;;5088338;28;20178;-75
2022/08/31 12:12:11;;;;;;;20.98;5.85;;;30.20;99.90;;;;;;5107953;28;20189;-75
2022/08/31 12:15:15;;;;;;;14.63;5.22;;;30.20;99.90;;;;;;5107981;28;20201;-76
2022/08/31 12:17:59;;;;;;;20.88;5.88;;;30.20;99.90;;;;;;5106886;28;20197;-75
2022/08/31 12:24:19;;;;;;;16.52;6.43;;;30.20;99.90;;;;;;5092183;28;20182;-74
2022/08/31 12:27:31;;;;;;;16.38;5.80;;;30.20;99.90;;;;;;5090804;28;20181;-75
2022/08/31 12:30:28;;;;;;;13.13;5.60;;;30.20;99.90;;;;;;5090704;28;20189;-75
2022/08/31 12:33:19;;;;;;;15.30;5.97;;;30.30;99.90;;;;;;5079429;28;20232;-74
2022/08/31 12:35:48;;;;;;;15.10;5.50;;;30.20;99.90;;;;;;5109447;28;20660;-75
2022/08/31 12:38:25;;;;;;;15.63;5.78;;;30.20;99.90;;;;;;5110515;28;20258;-74
2022/08/31 12:40:56;;;;;;;13.45;5.45;;;30.20;99.90;;;;;;5116982;27;20177;-75
2022/08/31 12:43:47;;;;;;;17.38;5.80;;;30.30;99.90;;;;;;5107641;28;20710;-74
2022/08/31 12:46:24;;;;;;;16.90;5.53;;;30.10;99.90;;;;;;5106838;28;20646;-74
2022/08/31 12:49:16;;;;;;;12.38;5.15;;;30.10;99.90;;;;;;5089552;28;20178;-74
2022/08/31 12:51:54;;;;;;;17.67;5.80;;;30.00;99.90;;;;;;5091875;28;20577;-74
2022/08/31 12:54:43;;;;;;;12.30;5.22;;;30.10;99.90;;;;;;5106918;28;20209;-75
2022/08/31 12:57:18;;;;;;;14.82;5.93;;;30.00;99.90;;;;;;5090211;28;20185;-74
2022/08/31 13:00:14;;;;;;;11.18;5.35;;;30.00;99.90;;;;;;5090094;28;20732;-74
2022/08/31 13:02:46;;;;;;;15.20;5.40;;;29.90;99.90;;;;;;5090219;28;20213;-74
2022/08/31 13:05:30;;;;;;;12.50;5.68;;;29.90;99.90;;;;;;5092003;28;20651;-74
2022/08/31 13:07:59;;;;;;;13.02;5.50;;;29.80;99.90;;;;;;5106675;28;20212;-74
2022/08/31 13:10:33;;;;;;;11.85;5.10;;;29.80;99.90;;;;;;5091312;28;20261;-74
2022/08/31 13:13:09;;;;;;;13.40;5.63;;;29.70;99.90;;;;;;5089801;28;20546;-74
2022/08/31 13:15:44;;;;;;;17.85;5.57;;;29.80;99.90;;;;;;5089903;28;20212;-75
2022/08/31 13:18:23;;;;;;;14.43;5.45;;;29.80;99.90;;;;;;5088870;28;20302;-75
2022/08/31 13:21:04;;;;;;;12.43;5.85;;;29.90;99.90;;;;;;5106718;28;20228;-76
2022/08/31 13:23:39;;;;;;;10.20;5.25;;;29.80;99.90;;;;;;5089596;28;20189;-74